Decoded Metar for EPBY (BYDGOSZCZ in POLAND) (IATA:N/A) | Meteo·Mobile Aviation Weather
aviador You're here:

EPBY Decoded Metar

BYDGOSZCZ in POLAND
Report Time2018-09-18 13:30:00
UTC Time2018-09-18 14:04:19
Flight Rules vfr VFR
Wind200° at 08 kt
W.Decomp.*RWY 26: 3.4 kt HW 7.3 kt LCW
W.Rank200° ranks 16
Current wind is above 200° avg. (5.3)
Visibility9999 m
Phenomena:N/A
Clouds:N/A
Expected CloudBase > 7,200 ft AGL from Temp-Dew spread
CeilingNone
Temp27°C (ISA +12)
Dew Point09°C (32% RH)
Heat Index26.5°C
AAT23.9°C
QNH1016 hPa
Density Alt1,726 ft
Elevation233 ft
Report Wrong Elevation
Raw Report
METAR EPBY 181330Z 20008KT 150V250 CAVOK 27/09 Q1016 =

Extra information for EPBY:More info

Metar Taf Metar & Taf Last 4 Metars F.Rules Stats Wind Profile Meteogram Temp Stats Airport Information Weather charts Add Link Nearby VenuesMetar ALERT Operation Metar Decoded Social comments